sensor_id;sensor_type;location;lat;lon;timestamp;pressure;altitude;pressure_sealevel;temperature;humidity
48053;BME280;33824;51.600;5.718;2023-11-21T00:01:54;100898.00;;;9.99;100.00
48053;BME280;33824;51.600;5.718;2023-11-21T00:04:20;100903.31;;;9.99;100.00
48053;BME280;33824;51.600;5.718;2023-11-21T00:06:46;100906.63;;;10.01;100.00
48053;BME280;33824;51.600;5.718;2023-11-21T00:09:13;100907.13;;;10.04;100.00
48053;BME280;33824;51.600;5.718;2023-11-21T00:11:41;100908.50;;;10.00;100.00
48053;BME280;33824;51.600;5.718;2023-11-21T00:14:07;100908.31;;;9.94;100.00
48053;BME280;33824;51.600;5.718;2023-11-21T00:16:33;100914.97;;;9.90;100.00
48053;BME280;33824;51.600;5.718;2023-11-21T00:18:59;100912.16;;;9.83;100.00
48053;BME280;33824;51.600;5.718;2023-11-21T00:21:25;100914.47;;;9.78;100.00
48053;BME280;33824;51.600;5.718;2023-11-21T00:23:50;100915.31;;;9.71;100.00
48053;BME280;33824;51.600;5.718;2023-11-21T00:26:16;100910.66;;;9.64;100.00
48053;BME280;33824;51.600;5.718;2023-11-21T00:28:42;100917.81;;;9.56;100.00
48053;BME280;33824;51.600;5.718;2023-11-21T00:31:10;100919.13;;;9.52;100.00
48053;BME280;33824;51.600;5.718;2023-11-21T00:33:36;100917.28;;;9.44;100.00
48053;BME280;33824;51.600;5.718;2023-11-21T00:36:01;100913.28;;;9.32;100.00
48053;BME280;33824;51.600;5.718;2023-11-21T00:38:27;100917.78;;;9.24;100.00
48053;BME280;33824;51.600;5.718;2023-11-21T00:40:53;100920.22;;;9.17;100.00
48053;BME280;33824;51.600;5.718;2023-11-21T00:43:24;100923.19;;;9.06;100.00
48053;BME280;33824;51.600;5.718;2023-11-21T00:45:50;100925.22;;;9.04;100.00
48053;BME280;33824;51.600;5.718;2023-11-21T00:48:15;100926.00;;;8.96;100.00
48053;BME280;33824;51.600;5.718;2023-11-21T00:50:41;100922.34;;;8.89;100.00
48053;BME280;33824;51.600;5.718;2023-11-21T00:53:06;100930.09;;;8.83;100.00
48053;BME280;33824;51.600;5.718;2023-11-21T00:55:33;100920.97;;;8.77;100.00
48053;BME280;33824;51.600;5.718;2023-11-21T00:57:59;100924.09;;;8.73;100.00
48053;BME280;33824;51.600;5.718;2023-11-21T01:00:25;100926.25;;;8.69;100.00
48053;BME280;33824;51.600;5.718;2023-11-21T01:02:50;100934.69;;;8.64;100.00
48053;BME280;33824;51.600;5.718;2023-11-21T01:05:16;100930.38;;;8.63;100.00
48053;BME280;33824;51.600;5.718;2023-11-21T01:07:42;100937.53;;;8.63;100.00
48053;BME280;33824;51.600;5.718;2023-11-21T01:10:08;100939.34;;;8.62;100.00
48053;BME280;33824;51.600;5.718;2023-11-21T01:12:36;100950.13;;;8.61;100.00
48053;BME280;33824;51.600;5.718;2023-11-21T01:15:03;100950.50;;;8.66;100.00
48053;BME280;33824;51.600;5.718;2023-11-21T01:17:29;100951.00;;;8.70;100.00
48053;BME280;33824;51.600;5.718;2023-11-21T01:19:54;100952.81;;;8.69;100.00
48053;BME280;33824;51.600;5.718;2023-11-21T01:22:21;100957.31;;;8.68;100.00
48053;BME280;33824;51.600;5.718;2023-11-21T01:24:51;100961.31;;;8.73;100.00
48053;BME280;33824;51.600;5.718;2023-11-21T01:27:18;100965.31;;;8.77;100.00
48053;BME280;33824;51.600;5.718;2023-11-21T01:29:43;100969.97;;;8.75;100.00
48053;BME280;33824;51.600;5.718;2023-11-21T01:32:10;100966.16;;;8.77;100.00
48053;BME280;33824;51.600;5.718;2023-11-21T01:34:36;100967.66;;;8.80;100.00
48053;BME280;33824;51.600;5.718;2023-11-21T01:37:02;100974.00;;;8.87;100.00
48053;BME280;33824;51.600;5.718;2023-11-21T01:39:30;100980.31;;;8.86;100.00
48053;BME280;33824;51.600;5.718;2023-11-21T01:41:55;100982.34;;;8.92;100.00
48053;BME280;33824;51.600;5.718;2023-11-21T01:44:24;100983.16;;;8.92;100.00
48053;BME280;33824;51.600;5.718;2023-11-21T01:46:50;100985.69;;;8.94;100.00
48053;BME280;33824;51.600;5.718;2023-11-21T01:49:17;100991.19;;;9.00;100.00
48053;BME280;33824;51.600;5.718;2023-11-21T01:51:45;100987.53;;;9.01;100.00
48053;BME280;33824;51.600;5.718;2023-11-21T01:54:12;100987.03;;;9.06;100.00
48053;BME280;33824;51.600;5.718;2023-11-21T01:56:38;100994.22;;;9.05;100.00
48053;BME280;33824;51.600;5.718;2023-11-21T01:59:04;100987.41;;;9.11;100.00
48053;BME280;33824;51.600;5.718;2023-11-21T02:01:30;100986.09;;;9.15;100.00
48053;BME280;33824;51.600;5.718;2023-11-21T02:03:56;100978.94;;;9.15;100.00
48053;BME280;33824;51.600;5.718;2023-11-21T02:06:22;100973.16;;;9.20;100.00
48053;BME280;33824;51.600;5.718;2023-11-21T02:08:47;100976.31;;;9.24;100.00
48053;BME280;33824;51.600;5.718;2023-11-21T02:11:14;100979.31;;;9.21;100.00
48053;BME280;33824;51.600;5.718;2023-11-21T02:13:43;100981.13;;;9.20;100.00
48053;BME280;33824;51.600;5.718;2023-11-21T02:16:10;100979.78;;;9.16;100.00
48053;BME280;33824;51.600;5.718;2023-11-21T02:18:38;100987.91;;;9.14;100.00
48053;BME280;33824;51.600;5.718;2023-11-21T02:21:04;100997.19;;;9.10;100.00
48053;BME280;33824;51.600;5.718;2023-11-21T02:23:30;100999.84;;;9.10;100.00
48053;BME280;33824;51.600;5.718;2023-11-21T02:25:56;101003.50;;;9.09;100.00
48053;BME280;33824;51.600;5.718;2023-11-21T02:28:21;101005.88;;;9.12;100.00
48053;BME280;33824;51.600;5.718;2023-11-21T02:30:52;101001.06;;;9.16;100.00
48053;BME280;33824;51.600;5.718;2023-11-21T02:33:21;101010.88;;;9.15;100.00
48053;BME280;33824;51.600;5.718;2023-11-21T02:35:47;101007.22;;;9.17;100.00
48053;BME280;33824;51.600;5.718;2023-11-21T02:38:15;101012.53;;;9.17;100.00
48053;BME280;33824;51.600;5.718;2023-11-21T02:40:42;101005.38;;;9.17;100.00
48053;BME280;33824;51.600;5.718;2023-11-21T02:43:08;101006.38;;;9.16;100.00
48053;BME280;33824;51.600;5.718;2023-11-21T02:45:34;101018.66;;;9.17;100.00
48053;BME280;33824;51.600;5.718;2023-11-21T02:48:00;101025.16;;;9.14;100.00
48053;BME280;33824;51.600;5.718;2023-11-21T02:50:25;101015.19;;;9.17;100.00
48053;BME280;33824;51.600;5.718;2023-11-21T02:52:52;101020.34;;;9.18;100.00
48053;BME280;33824;51.600;5.718;2023-11-21T02:55:17;101016.69;;;9.19;100.00
48053;BME280;33824;51.600;5.718;2023-11-21T02:57:43;101017.34;;;9.21;100.00
48053;BME280;33824;51.600;5.718;2023-11-21T03:00:09;101015.84;;;9.19;100.00
48053;BME280;33824;51.600;5.718;2023-11-21T03:02:40;101015.72;;;9.20;100.00
48053;BME280;33824;51.600;5.718;2023-11-21T03:05:06;101016.84;;;9.18;100.00
48053;BME280;33824;51.600;5.718;2023-11-21T03:07:34;101020.00;;;9.21;100.00
48053;BME280;33824;51.600;5.718;2023-11-21T03:10:00;101021.69;;;9.22;100.00
48053;BME280;33824;51.600;5.718;2023-11-21T03:12:26;101011.53;;;9.18;100.00
48053;BME280;33824;51.600;5.718;2023-11-21T03:14:51;101016.16;;;9.07;100.00
48053;BME280;33824;51.600;5.718;2023-11-21T03:17:17;101022.78;;;9.03;100.00
48053;BME280;33824;51.600;5.718;2023-11-21T03:19:42;101023.63;;;9.04;100.00
48053;BME280;33824;51.600;5.718;2023-11-21T03:22:08;101030.63;;;9.05;100.00
48053;BME280;33824;51.600;5.718;2023-11-21T03:24:34;101029.31;;;9.09;100.00
48053;BME280;33824;51.600;5.718;2023-11-21T03:27:00;101034.63;;;9.09;100.00
48053;BME280;33824;51.600;5.718;2023-11-21T03:29:25;101037.09;;;9.10;100.00
48053;BME280;33824;51.600;5.718;2023-11-21T03:31:51;101036.94;;;9.12;100.00
48053;BME280;33824;51.600;5.718;2023-11-21T03:34:26;101036.59;;;9.07;100.00
48053;BME280;33824;51.600;5.718;2023-11-21T03:36:52;101038.31;;;9.16;100.00
48053;BME280;33824;51.600;5.718;2023-11-21T03:39:22;101041.13;;;9.14;100.00
48053;BME280;33824;51.600;5.718;2023-11-21T03:41:48;101043.44;;;9.18;100.00
48053;BME280;33824;51.600;5.718;2023-11-21T03:44:14;101043.44;;;9.18;100.00
48053;BME280;33824;51.600;5.718;2023-11-21T03:46:39;101048.09;;;9.15;100.00
48053;BME280;33824;51.600;5.718;2023-11-21T03:49:05;101049.78;;;9.17;100.00
48053;BME280;33824;51.600;5.718;2023-11-21T03:51:30;101051.09;;;9.12;100.00
48053;BME280;33824;51.600;5.718;2023-11-21T03:53:56;101048.25;;;9.14;100.00
48053;BME280;33824;51.600;5.718;2023-11-21T03:56:22;101042.59;;;9.17;100.00
48053;BME280;33824;51.600;5.718;2023-11-21T03:58:48;101040.63;;;9.19;100.00
48053;BME280;33824;51.600;5.718;2023-11-21T04:01:21;101041.59;;;9.10;100.00
48053;BME280;33824;51.600;5.718;2023-11-21T04:03:47;101049.28;;;9.13;100.00
48053;BME280;33824;51.600;5.718;2023-11-21T04:06:13;101047.09;;;9.08;100.00
48053;BME280;33824;51.600;5.718;2023-11-21T04:08:38;101043.06;;;9.04;100.00
48053;BME280;33824;51.600;5.718;2023-11-21T04:11:04;101052.31;;;8.92;100.00
48053;BME280;33824;51.600;5.718;2023-11-21T04:13:29;101054.78;;;8.86;100.00
48053;BME280;33824;51.600;5.718;2023-11-21T04:15:56;101056.28;;;8.88;100.00
48053;BME280;33824;51.600;5.718;2023-11-21T04:18:22;101049.75;;;8.83;100.00
48053;BME280;33824;51.600;5.718;2023-11-21T04:20:50;101065.00;;;8.73;100.00
48053;BME280;33824;51.600;5.718;2023-11-21T04:23:16;101078.66;;;8.78;100.00
48053;BME280;33824;51.600;5.718;2023-11-21T04:25:41;101074.97;;;8.71;100.00
48053;BME280;33824;51.600;5.718;2023-11-21T04:28:07;101074.59;;;8.65;100.00
48053;BME280;33824;51.600;5.718;2023-11-21T04:30:32;101078.69;;;8.60;100.00
48053;BME280;33824;51.600;5.718;2023-11-21T04:32:58;101082.69;;;8.64;100.00
48053;BME280;33824;51.600;5.718;2023-11-21T04:35:23;101087.34;;;8.62;100.00
48053;BME280;33824;51.600;5.718;2023-11-21T04:37:49;101090.47;;;8.57;100.00
48053;BME280;33824;51.600;5.718;2023-11-21T04:40:16;101100.78;;;8.60;100.00
48053;BME280;33824;51.600;5.718;2023-11-21T04:42:42;101097.47;;;8.58;100.00
48053;BME280;33824;51.600;5.718;2023-11-21T04:45:08;101097.28;;;8.60;100.00
48053;BME280;33824;51.600;5.718;2023-11-21T04:47:35;101104.28;;;8.61;100.00
48053;BME280;33824;51.600;5.718;2023-11-21T04:50:02;101106.09;;;8.60;100.00
48053;BME280;33824;51.600;5.718;2023-11-21T04:52:29;101109.28;;;8.64;100.00
48053;BME280;33824;51.600;5.718;2023-11-21T04:54:54;101115.13;;;8.67;100.00
48053;BME280;33824;51.600;5.718;2023-11-21T04:57:21;101119.91;;;8.64;100.00
48053;BME280;33824;51.600;5.718;2023-11-21T04:59:48;101123.59;;;8.63;100.00
48053;BME280;33824;51.600;5.718;2023-11-21T05:02:14;101123.19;;;8.58;100.00
48053;BME280;33824;51.600;5.718;2023-11-21T05:04:39;101131.19;;;8.58;100.00
48053;BME280;33824;51.600;5.718;2023-11-21T05:07:05;101125.41;;;8.62;100.00
48053;BME280;33824;51.600;5.718;2023-11-21T05:09:30;101127.09;;;8.63;100.00
48053;BME280;33824;51.600;5.718;2023-11-21T05:11:58;101132.22;;;8.65;100.00
48053;BME280;33824;51.600;5.718;2023-11-21T05:14:23;101131.78;;;8.70;100.00
48053;BME280;33824;51.600;5.718;2023-11-21T05:16:49;101134.44;;;8.70;100.00
48053;BME280;33824;51.600;5.718;2023-11-21T05:19:16;101141.88;;;8.66;100.00
48053;BME280;33824;51.600;5.718;2023-11-21T05:21:44;101134.88;;;8.65;100.00
48053;BME280;33824;51.600;5.718;2023-11-21T05:24:10;101142.91;;;8.73;100.00
48053;BME280;33824;51.600;5.718;2023-11-21T05:26:36;101143.75;;;8.74;100.00
48053;BME280;33824;51.600;5.718;2023-11-21T05:29:01;101139.28;;;8.74;100.00
48053;BME280;33824;51.600;5.718;2023-11-21T05:31:27;101148.09;;;8.75;100.00
48053;BME280;33824;51.600;5.718;2023-11-21T05:33:52;101153.56;;;8.73;100.00
48053;BME280;33824;51.600;5.718;2023-11-21T05:36:18;101149.22;;;8.72;100.00
48053;BME280;33824;51.600;5.718;2023-11-21T05:38:44;101150.38;;;8.70;100.00
48053;BME280;33824;51.600;5.718;2023-11-21T05:41:09;101151.03;;;8.72;100.00
48053;BME280;33824;51.600;5.718;2023-11-21T05:43:39;101151.75;;;8.74;100.00
48053;BME280;33824;51.600;5.718;2023-11-21T05:46:05;101163.53;;;8.71;100.00
48053;BME280;33824;51.600;5.718;2023-11-21T05:48:32;101151.22;;;8.70;100.00
48053;BME280;33824;51.600;5.718;2023-11-21T05:50:58;101159.66;;;8.65;100.00
48053;BME280;33824;51.600;5.718;2023-11-21T05:53:24;101163.28;;;8.64;100.00
48053;BME280;33824;51.600;5.718;2023-11-21T05:55:51;101165.94;;;8.64;100.00
48053;BME280;33824;51.600;5.718;2023-11-21T05:58:16;101174.22;;;8.61;100.00
48053;BME280;33824;51.600;5.718;2023-11-21T06:00:42;101172.72;;;8.59;100.00
48053;BME280;33824;51.600;5.718;2023-11-21T06:03:07;101177.59;;;8.63;100.00
48053;BME280;33824;51.600;5.718;2023-11-21T06:05:33;101177.28;;;8.66;100.00
48053;BME280;33824;51.600;5.718;2023-11-21T06:07:59;101185.56;;;8.63;100.00
48053;BME280;33824;51.600;5.718;2023-11-21T06:10:26;101186.22;;;8.65;100.00
48053;BME280;33824;51.600;5.718;2023-11-21T06:12:52;101195.88;;;8.66;100.00
48053;BME280;33824;51.600;5.718;2023-11-21T06:15:18;101191.69;;;8.64;100.00
48053;BME280;33824;51.600;5.718;2023-11-21T06:17:45;101192.84;;;8.61;100.00
48053;BME280;33824;51.600;5.718;2023-11-21T06:20:15;101193.22;;;8.66;100.00
48053;BME280;33824;51.600;5.718;2023-11-21T06:22:44;101199.53;;;8.65;100.00
48053;BME280;33824;51.600;5.718;2023-11-21T06:25:11;101199.53;;;8.65;100.00
48053;BME280;33824;51.600;5.718;2023-11-21T06:27:47;101206.75;;;8.55;100.00
48053;BME280;33824;51.600;5.718;2023-11-21T06:30:14;101209.53;;;8.72;100.00
48053;BME280;33824;51.600;5.718;2023-11-21T06:32:41;101206.41;;;8.76;100.00
48053;BME280;33824;51.600;5.718;2023-11-21T06:35:07;101217.25;;;8.83;100.00
48053;BME280;33824;51.600;5.718;2023-11-21T06:37:35;101218.03;;;8.93;100.00
48053;BME280;33824;51.600;5.718;2023-11-21T06:40:01;101222.72;;;8.99;100.00
48053;BME280;33824;51.600;5.718;2023-11-21T06:42:29;101224.53;;;8.98;100.00
48053;BME280;33824;51.600;5.718;2023-11-21T06:44:55;101222.91;;;8.97;100.00
48053;BME280;33824;51.600;5.718;2023-11-21T06:47:25;101224.00;;;8.95;100.00
48053;BME280;33824;51.600;5.718;2023-11-21T06:49:54;101233.00;;;8.94;100.00
48053;BME280;33824;51.600;5.718;2023-11-21T06:52:20;101228.22;;;8.97;100.00
48053;BME280;33824;51.600;5.718;2023-11-21T06:54:47;101228.88;;;8.99;100.00
48053;BME280;33824;51.600;5.718;2023-11-21T06:57:15;101227.06;;;9.00;100.00
48053;BME280;33824;51.600;5.718;2023-11-21T06:59:41;101235.25;;;9.06;100.00
48053;BME280;33824;51.600;5.718;2023-11-21T07:02:07;101232.13;;;9.11;100.00
48053;BME280;33824;51.600;5.718;2023-11-21T07:04:33;101243.28;;;9.14;100.00
48053;BME280;33824;51.600;5.718;2023-11-21T07:06:58;101239.66;;;9.15;100.00
48053;BME280;33824;51.600;5.718;2023-11-21T07:09:24;101237.38;;;9.21;100.00
48053;BME280;33824;51.600;5.718;2023-11-21T07:11:51;101240.50;;;9.16;100.00
48053;BME280;33824;51.600;5.718;2023-11-21T07:14:17;101255.44;;;9.17;100.00
48053;BME280;33824;51.600;5.718;2023-11-21T07:16:45;101256.28;;;9.18;100.00
48053;BME280;33824;51.600;5.718;2023-11-21T07:19:11;101256.53;;;9.24;100.00
48053;BME280;33824;51.600;5.718;2023-11-21T07:21:38;101269.19;;;9.30;100.00
48053;BME280;33824;51.600;5.718;2023-11-21T07:24:05;101275.19;;;9.32;100.00
48053;BME280;33824;51.600;5.718;2023-11-21T07:26:32;101276.53;;;9.36;100.00
48053;BME280;33824;51.600;5.718;2023-11-21T07:29:01;101286.19;;;9.37;100.00
48053;BME280;33824;51.600;5.718;2023-11-21T07:31:28;101290.69;;;9.37;100.00
48053;BME280;33824;51.600;5.718;2023-11-21T07:33:55;101296.00;;;9.37;100.00
48053;BME280;33824;51.600;5.718;2023-11-21T07:36:23;101294.88;;;9.39;100.00
48053;BME280;33824;51.600;5.718;2023-11-21T07:38:49;101295.56;;;9.41;100.00
48053;BME280;33824;51.600;5.718;2023-11-21T07:41:15;101295.69;;;9.40;100.00
48053;BME280;33824;51.600;5.718;2023-11-21T07:43:42;101290.94;;;9.43;100.00
48053;BME280;33824;51.600;5.718;2023-11-21T07:46:07;101302.38;;;9.44;100.00
48053;BME280;33824;51.600;5.718;2023-11-21T07:48:33;101309.91;;;9.48;100.00
48053;BME280;33824;51.600;5.718;2023-11-21T07:51:00;101315.41;;;9.47;100.00
48053;BME280;33824;51.600;5.718;2023-11-21T07:53:26;101315.59;;;9.53;100.00
48053;BME280;33824;51.600;5.718;2023-11-21T07:56:06;101309.06;;;9.48;100.00
48053;BME280;33824;51.600;5.718;2023-11-21T07:58:33;101322.63;;;9.62;100.00
48053;BME280;33824;51.600;5.718;2023-11-21T08:01:00;101318.84;;;9.65;100.00
48053;BME280;33824;51.600;5.718;2023-11-21T08:03:25;101313.34;;;9.67;100.00
48053;BME280;33824;51.600;5.718;2023-11-21T08:05:58;101322.19;;;9.67;100.00
48053;BME280;33824;51.600;5.718;2023-11-21T08:08:25;101323.19;;;9.66;100.00
48053;BME280;33824;51.600;5.718;2023-11-21T08:10:51;101326.13;;;9.63;100.00
48053;BME280;33824;51.600;5.718;2023-11-21T08:13:24;101330.81;;;9.61;100.00
48053;BME280;33824;51.600;5.718;2023-11-21T08:15:50;101334.13;;;9.63;100.00
48053;BME280;33824;51.600;5.718;2023-11-21T08:18:19;101338.47;;;9.64;100.00
48053;BME280;33824;51.600;5.718;2023-11-21T08:20:44;101333.53;;;9.69;100.00
48053;BME280;33824;51.600;5.718;2023-11-21T08:23:14;101346.72;;;9.79;100.00
48053;BME280;33824;51.600;5.718;2023-11-21T08:25:41;101344.94;;;9.87;100.00
48053;BME280;33824;51.600;5.718;2023-11-21T08:28:07;101343.19;;;9.96;100.00
48053;BME280;33824;51.600;5.718;2023-11-21T08:30:33;101349.88;;;10.00;100.00
48053;BME280;33824;51.600;5.718;2023-11-21T08:33:00;101349.72;;;10.09;100.00
48053;BME280;33824;51.600;5.718;2023-11-21T08:35:25;101355.28;;;10.16;100.00
48053;BME280;33824;51.600;5.718;2023-11-21T08:37:52;101355.66;;;10.21;100.00
48053;BME280;33824;51.600;5.718;2023-11-21T08:40:18;101358.19;;;10.23;100.00
48053;BME280;33824;51.600;5.718;2023-11-21T08:42:47;101359.34;;;10.28;100.00
48053;BME280;33824;51.600;5.718;2023-11-21T08:45:16;101376.69;;;10.32;100.00
48053;BME280;33824;51.600;5.718;2023-11-21T08:47:43;101376.56;;;10.34;100.00
48053;BME280;33824;51.600;5.718;2023-11-21T08:50:09;101377.53;;;10.33;100.00
48053;BME280;33824;51.600;5.718;2023-11-21T08:52:38;101386.84;;;10.29;100.00
48053;BME280;33824;51.600;5.718;2023-11-21T08:55:07;101386.47;;;10.24;100.00
48053;BME280;33824;51.600;5.718;2023-11-21T08:57:34;101391.34;;;10.28;100.00
48053;BME280;33824;51.600;5.718;2023-11-21T09:00:01;101386.84;;;10.29;100.00
48053;BME280;33824;51.600;5.718;2023-11-21T09:02:26;101387.03;;;10.35;100.00
48053;BME280;33824;51.600;5.718;2023-11-21T09:04:52;101400.72;;;10.40;100.00
48053;BME280;33824;51.600;5.718;2023-11-21T09:07:21;101395.91;;;10.44;100.00
48053;BME280;33824;51.600;5.718;2023-11-21T09:09:47;101397.97;;;10.50;100.00
48053;BME280;33824;51.600;5.718;2023-11-21T09:12:13;101399.47;;;10.52;100.00
48053;BME280;33824;51.600;5.718;2023-11-21T09:14:39;101401.66;;;10.57;100.00
48053;BME280;33824;51.600;5.718;2023-11-21T09:17:05;101399.50;;;10.61;100.00
48053;BME280;33824;51.600;5.718;2023-11-21T09:19:39;101403.16;;;10.59;100.00
48053;BME280;33824;51.600;5.718;2023-11-21T09:22:05;101412.53;;;10.72;100.00
48053;BME280;33824;51.600;5.718;2023-11-21T09:24:33;101409.03;;;10.71;100.00
48053;BME280;33824;51.600;5.718;2023-11-21T09:27:02;101412.41;;;10.81;100.00
48053;BME280;33824;51.600;5.718;2023-11-21T09:29:27;101412.28;;;10.91;100.00
48053;BME280;33824;51.600;5.718;2023-11-21T09:31:55;101417.13;;;10.95;100.00
48053;BME280;33824;51.600;5.718;2023-11-21T09:34:22;101415.81;;;10.99;100.00
48053;BME280;33824;51.600;5.718;2023-11-21T09:36:47;101414.97;;;10.99;100.00
48053;BME280;33824;51.600;5.718;2023-11-21T09:39:13;101423.00;;;11.07;100.00
48053;BME280;33824;51.600;5.718;2023-11-21T09:41:49;101432.66;;;11.08;100.00
48053;BME280;33824;51.600;5.718;2023-11-21T09:44:23;101429.34;;;11.06;100.00
48053;BME280;33824;51.600;5.718;2023-11-21T09:46:50;101434.03;;;11.20;100.00
48053;BME280;33824;51.600;5.718;2023-11-21T09:49:22;101441.53;;;11.17;100.00
48053;BME280;33824;51.600;5.718;2023-11-21T09:51:52;101443.22;;;11.18;100.00
48053;BME280;33824;51.600;5.718;2023-11-21T09:54:19;101450.03;;;11.20;100.00
48053;BME280;33824;51.600;5.718;2023-11-21T09:56:47;101457.41;;;11.18;100.00
48053;BME280;33824;51.600;5.718;2023-11-21T09:59:15;101462.41;;;11.21;100.00
48053;BME280;33824;51.600;5.718;2023-11-21T10:01:42;101466.56;;;11.24;100.00
48053;BME280;33824;51.600;5.718;2023-11-21T10:04:10;101472.59;;;11.26;100.00
48053;BME280;33824;51.600;5.718;2023-11-21T10:06:40;101476.09;;;11.34;100.00
48053;BME280;33824;51.600;5.718;2023-11-21T10:09:12;101469.25;;;11.32;100.00
48053;BME280;33824;51.600;5.718;2023-11-21T10:11:42;101474.75;;;11.22;100.00
48053;BME280;33824;51.600;5.718;2023-11-21T10:14:10;101472.25;;;11.21;100.00
48053;BME280;33824;51.600;5.718;2023-11-21T10:16:39;101477.25;;;11.24;100.00
48053;BME280;33824;51.600;5.718;2023-11-21T10:19:06;101484.41;;;11.23;100.00
48053;BME280;33824;51.600;5.718;2023-11-21T10:21:35;101483.56;;;11.23;100.00
48053;BME280;33824;51.600;5.718;2023-11-21T10:24:00;101488.78;;;11.32;100.00
48053;BME280;33824;51.600;5.718;2023-11-21T10:26:28;101488.13;;;11.38;100.00
48053;BME280;33824;51.600;5.718;2023-11-21T10:29:01;101480.28;;;11.37;100.00
48053;BME280;33824;51.600;5.718;2023-11-21T10:31:32;101489.81;;;11.47;100.00
48053;BME280;33824;51.600;5.718;2023-11-21T10:34:15;101494.81;;;11.50;100.00
48053;BME280;33824;51.600;5.718;2023-11-21T10:36:42;101496.03;;;11.64;100.00
48053;BME280;33824;51.600;5.718;2023-11-21T10:39:07;101501.88;;;11.68;100.00
48053;BME280;33824;51.600;5.718;2023-11-21T10:41:33;101506.72;;;11.64;100.00
48053;BME280;33824;51.600;5.718;2023-11-21T10:44:03;101499.38;;;11.66;100.00
48053;BME280;33824;51.600;5.718;2023-11-21T10:46:32;101501.91;;;11.76;100.00
48053;BME280;33824;51.600;5.718;2023-11-21T10:48:57;101496.25;;;11.87;100.00
48053;BME280;33824;51.600;5.718;2023-11-21T10:51:23;101496.72;;;11.98;100.00
48053;BME280;33824;51.600;5.718;2023-11-21T10:53:52;101497.41;;;12.00;100.00
48053;BME280;33824;51.600;5.718;2023-11-21T10:56:18;101505.44;;;12.00;100.00
48053;BME280;33824;51.600;5.718;2023-11-21T10:58:46;101504.25;;;12.11;100.00
48053;BME280;33824;51.600;5.718;2023-11-21T11:01:12;101500.94;;;12.17;100.00
48053;BME280;33824;51.600;5.718;2023-11-21T11:03:39;101495.03;;;12.22;100.00
48053;BME280;33824;51.600;5.718;2023-11-21T11:06:07;101504.91;;;12.37;100.00
48053;BME280;33824;51.600;5.718;2023-11-21T11:08:40;101510.44;;;12.28;100.00
48053;BME280;33824;51.600;5.718;2023-11-21T11:11:07;101508.91;;;12.33;100.00
48053;BME280;33824;51.600;5.718;2023-11-21T11:13:32;101501.56;;;12.35;100.00
48053;BME280;33824;51.600;5.718;2023-11-21T11:15:59;101508.19;;;12.56;100.00
48053;BME280;33824;51.600;5.718;2023-11-21T11:18:29;101503.19;;;12.61;100.00
48053;BME280;33824;51.600;5.718;2023-11-21T11:21:02;101508.56;;;12.44;100.00
48053;BME280;33824;51.600;5.718;2023-11-21T11:24:20;101525.63;;;12.19;100.00
48053;BME280;33824;51.600;5.718;2023-11-21T11:26:42;101526.13;;;11.98;100.00
48053;BME280;33824;51.600;5.718;2023-11-21T11:29:25;101533.97;;;11.84;100.00
48053;BME280;33824;51.600;5.718;2023-11-21T11:32:09;101533.97;;;11.84;100.00
48053;BME280;33824;51.600;5.718;2023-11-21T11:34:48;101536.47;;;11.77;100.00
48053;BME280;33824;51.600;5.718;2023-11-21T11:37:19;101533.97;;;11.84;100.00
48053;BME280;33824;51.600;5.718;2023-11-21T11:39:45;101536.00;;;11.82;100.00
48053;BME280;33824;51.600;5.718;2023-11-21T11:42:16;101528.31;;;11.79;100.00
48053;BME280;33824;51.600;5.718;2023-11-21T11:50:09;101543.09;;;11.65;100.00
48053;BME280;33824;51.600;5.718;2023-11-21T11:52:46;101545.66;;;11.75;100.00
48053;BME280;33824;51.600;5.718;2023-11-21T11:55:13;101566.81;;;11.68;100.00
48053;BME280;33824;51.600;5.718;2023-11-21T11:57:41;101567.63;;;11.52;100.00
48053;BME280;33824;51.600;5.718;2023-11-21T12:00:11;101574.94;;;11.50;100.00
48053;BME280;33824;51.600;5.718;2023-11-21T12:02:39;101577.25;;;11.45;100.00
48053;BME280;33824;51.600;5.718;2023-11-21T12:05:10;101594.94;;;11.38;100.00
48053;BME280;33824;51.600;5.718;2023-11-21T12:07:53;101581.53;;;11.22;100.00
48053;BME280;33824;51.600;5.718;2023-11-21T12:10:30;101584.69;;;11.18;100.00
48053;BME280;33824;51.600;5.718;2023-11-21T12:12:57;101598.06;;;11.26;100.00
48053;BME280;33824;51.600;5.718;2023-11-21T12:15:24;101594.66;;;11.16;100.00
48053;BME280;33824;51.600;5.718;2023-11-21T12:17:51;101591.81;;;11.09;100.00
48053;BME280;33824;51.600;5.718;2023-11-21T12:20:22;101590.13;;;11.08;100.00
48053;BME280;33824;51.600;5.718;2023-11-21T12:22:54;101600.69;;;10.92;100.00
48053;BME280;33824;51.600;5.718;2023-11-21T12:25:22;101592.53;;;10.93;100.00
48053;BME280;33824;51.600;5.718;2023-11-21T12:27:49;101601.38;;;10.94;100.00
48053;BME280;33824;51.600;5.718;2023-11-21T12:30:16;101609.19;;;10.87;100.00
48053;BME280;33824;51.600;5.718;2023-11-21T12:32:43;101612.78;;;10.78;100.00
48053;BME280;33824;51.600;5.718;2023-11-21T12:35:09;101608.69;;;10.84;100.00
48053;BME280;33824;51.600;5.718;2023-11-21T12:37:41;101616.44;;;10.77;100.00
48053;BME280;33824;51.600;5.718;2023-11-21T12:40:10;101622.88;;;10.92;100.00
48053;BME280;33824;51.600;5.718;2023-11-21T12:42:47;101619.94;;;10.78;100.00
48053;BME280;33824;51.600;5.718;2023-11-21T12:47:59;101620.53;;;10.64;100.00
48053;BME280;33824;51.600;5.718;2023-11-21T12:50:27;101621.25;;;10.74;100.00
48053;BME280;33824;51.600;5.718;2023-11-21T12:55:34;101626.19;;;10.86;100.00
48053;BME280;33824;51.600;5.718;2023-11-21T12:58:05;101620.47;;;10.81;100.00